sensor_id;sensor_type;location;lat;lon;timestamp;P1;durP1;ratioP1;P2;durP2;ratioP2
2001;SDS011;1003;48.002;7.788;2023-03-01T00:01:10;26.17;;;13.33;;
2001;SDS011;1003;48.002;7.788;2023-03-01T00:03:41;26.53;;;13.50;;
2001;SDS011;1003;48.002;7.788;2023-03-01T00:06:10;26.10;;;12.77;;
2001;SDS011;1003;48.002;7.788;2023-03-01T00:08:38;24.90;;;12.73;;
2001;SDS011;1003;48.002;7.788;2023-03-01T00:11:05;25.13;;;13.13;;
2001;SDS011;1003;48.002;7.788;2023-03-01T00:13:36;27.17;;;12.50;;
2001;SDS011;1003;48.002;7.788;2023-03-01T00:16:03;26.80;;;13.20;;
2001;SDS011;1003;48.002;7.788;2023-03-01T00:18:32;22.17;;;12.27;;
2001;SDS011;1003;48.002;7.788;2023-03-01T00:21:00;27.30;;;12.97;;
2001;SDS011;1003;48.002;7.788;2023-03-01T00:23:29;25.30;;;13.03;;
2001;SDS011;1003;48.002;7.788;2023-03-01T00:25:56;23.33;;;12.87;;
2001;SDS011;1003;48.002;7.788;2023-03-01T00:28:23;21.43;;;11.90;;
2001;SDS011;1003;48.002;7.788;2023-03-01T00:30:50;25.97;;;12.47;;
2001;SDS011;1003;48.002;7.788;2023-03-01T00:33:18;27.47;;;12.43;;
2001;SDS011;1003;48.002;7.788;2023-03-01T00:35:46;26.33;;;11.33;;
2001;SDS011;1003;48.002;7.788;2023-03-01T00:38:13;23.97;;;11.67;;
2001;SDS011;1003;48.002;7.788;2023-03-01T00:40:41;24.00;;;11.83;;
2001;SDS011;1003;48.002;7.788;2023-03-01T00:43:08;24.63;;;12.37;;
2001;SDS011;1003;48.002;7.788;2023-03-01T00:45:36;23.13;;;11.63;;
2001;SDS011;1003;48.002;7.788;2023-03-01T00:48:03;23.90;;;12.20;;
2001;SDS011;1003;48.002;7.788;2023-03-01T00:50:31;24.93;;;12.73;;
2001;SDS011;1003;48.002;7.788;2023-03-01T00:52:58;25.97;;;12.03;;
2001;SDS011;1003;48.002;7.788;2023-03-01T00:55:25;25.00;;;12.07;;
2001;SDS011;1003;48.002;7.788;2023-03-01T00:57:54;22.87;;;11.93;;
2001;SDS011;1003;48.002;7.788;2023-03-01T01:00:21;24.43;;;12.13;;
2001;SDS011;1003;48.002;7.788;2023-03-01T01:02:48;24.87;;;11.87;;
2001;SDS011;1003;48.002;7.788;2023-03-01T01:05:15;23.17;;;11.70;;
2001;SDS011;1003;48.002;7.788;2023-03-01T01:07:46;24.00;;;11.80;;
2001;SDS011;1003;48.002;7.788;2023-03-01T01:10:14;22.03;;;11.33;;
2001;SDS011;1003;48.002;7.788;2023-03-01T01:12:42;21.90;;;11.23;;
2001;SDS011;1003;48.002;7.788;2023-03-01T01:15:12;23.83;;;11.30;;
2001;SDS011;1003;48.002;7.788;2023-03-01T01:17:41;27.90;;;12.30;;
2001;SDS011;1003;48.002;7.788;2023-03-01T01:20:08;26.37;;;11.40;;
2001;SDS011;1003;48.002;7.788;2023-03-01T01:22:37;23.17;;;11.10;;
2001;SDS011;1003;48.002;7.788;2023-03-01T01:25:05;24.17;;;11.50;;
2001;SDS011;1003;48.002;7.788;2023-03-01T01:27:32;24.57;;;11.47;;
2001;SDS011;1003;48.002;7.788;2023-03-01T01:30:00;25.47;;;11.77;;
2001;SDS011;1003;48.002;7.788;2023-03-01T01:32:28;22.00;;;11.47;;
2001;SDS011;1003;48.002;7.788;2023-03-01T01:34:55;23.60;;;10.70;;
2001;SDS011;1003;48.002;7.788;2023-03-01T01:37:22;23.87;;;11.93;;
2001;SDS011;1003;48.002;7.788;2023-03-01T01:39:55;23.37;;;11.37;;
2001;SDS011;1003;48.002;7.788;2023-03-01T01:42:23;23.77;;;11.10;;
2001;SDS011;1003;48.002;7.788;2023-03-01T01:47:53;20.03;;;10.90;;
2001;SDS011;1003;48.002;7.788;2023-03-01T01:50:26;22.57;;;11.00;;
2001;SDS011;1003;48.002;7.788;2023-03-01T01:53:04;21.07;;;11.53;;
2001;SDS011;1003;48.002;7.788;2023-03-01T01:55:36;21.43;;;11.73;;
2001;SDS011;1003;48.002;7.788;2023-03-01T01:58:09;23.07;;;11.23;;
2001;SDS011;1003;48.002;7.788;2023-03-01T02:00:41;23.60;;;11.10;;
2001;SDS011;1003;48.002;7.788;2023-03-01T02:03:11;26.80;;;11.67;;
2001;SDS011;1003;48.002;7.788;2023-03-01T02:05:45;27.57;;;12.03;;
2001;SDS011;1003;48.002;7.788;2023-03-01T02:08:19;22.47;;;11.57;;
2001;SDS011;1003;48.002;7.788;2023-03-01T02:10:51;24.57;;;12.37;;
2001;SDS011;1003;48.002;7.788;2023-03-01T02:13:20;20.70;;;10.63;;
2001;SDS011;1003;48.002;7.788;2023-03-01T02:15:49;20.60;;;10.57;;
2001;SDS011;1003;48.002;7.788;2023-03-01T02:18:18;23.40;;;11.27;;
2001;SDS011;1003;48.002;7.788;2023-03-01T02:20:50;21.77;;;11.70;;
2001;SDS011;1003;48.002;7.788;2023-03-01T02:23:34;24.17;;;12.37;;
2001;SDS011;1003;48.002;7.788;2023-03-01T02:26:04;25.93;;;12.03;;
2001;SDS011;1003;48.002;7.788;2023-03-01T02:28:40;24.13;;;11.70;;
2001;SDS011;1003;48.002;7.788;2023-03-01T02:31:10;26.83;;;12.33;;
2001;SDS011;1003;48.002;7.788;2023-03-01T02:34:01;25.23;;;12.57;;
2001;SDS011;1003;48.002;7.788;2023-03-01T02:36:31;21.73;;;11.10;;
2001;SDS011;1003;48.002;7.788;2023-03-01T02:39:04;22.17;;;11.67;;
2001;SDS011;1003;48.002;7.788;2023-03-01T02:41:39;23.40;;;11.93;;
2001;SDS011;1003;48.002;7.788;2023-03-01T02:44:13;23.20;;;11.93;;
2001;SDS011;1003;48.002;7.788;2023-03-01T02:46:41;27.00;;;12.10;;
2001;SDS011;1003;48.002;7.788;2023-03-01T02:49:18;25.37;;;12.40;;
2001;SDS011;1003;48.002;7.788;2023-03-01T02:51:56;26.83;;;12.13;;
2001;SDS011;1003;48.002;7.788;2023-03-01T02:54:43;25.00;;;12.10;;
2001;SDS011;1003;48.002;7.788;2023-03-01T02:57:16;25.10;;;11.67;;
2001;SDS011;1003;48.002;7.788;2023-03-01T02:59:46;27.60;;;12.20;;
2001;SDS011;1003;48.002;7.788;2023-03-01T03:02:20;27.57;;;12.63;;
2001;SDS011;1003;48.002;7.788;2023-03-01T03:05:01;28.47;;;11.67;;
2001;SDS011;1003;48.002;7.788;2023-03-01T03:07:35;26.80;;;12.13;;
2001;SDS011;1003;48.002;7.788;2023-03-01T03:10:06;22.53;;;11.03;;
2001;SDS011;1003;48.002;7.788;2023-03-01T03:12:37;23.70;;;11.67;;
2001;SDS011;1003;48.002;7.788;2023-03-01T03:15:06;24.43;;;11.50;;
2001;SDS011;1003;48.002;7.788;2023-03-01T03:17:38;23.07;;;10.83;;
2001;SDS011;1003;48.002;7.788;2023-03-01T03:20:09;25.97;;;12.27;;
2001;SDS011;1003;48.002;7.788;2023-03-01T03:22:43;24.07;;;12.23;;
2001;SDS011;1003;48.002;7.788;2023-03-01T03:25:11;24.00;;;12.03;;
2001;SDS011;1003;48.002;7.788;2023-03-01T03:27:39;20.93;;;10.87;;
2001;SDS011;1003;48.002;7.788;2023-03-01T03:30:11;25.33;;;11.77;;
2001;SDS011;1003;48.002;7.788;2023-03-01T03:32:41;25.60;;;12.40;;
2001;SDS011;1003;48.002;7.788;2023-03-01T03:35:18;32.53;;;14.07;;
2001;SDS011;1003;48.002;7.788;2023-03-01T03:37:47;25.43;;;12.23;;
2001;SDS011;1003;48.002;7.788;2023-03-01T03:40:32;22.73;;;11.40;;
2001;SDS011;1003;48.002;7.788;2023-03-01T03:43:01;26.50;;;12.37;;
2001;SDS011;1003;48.002;7.788;2023-03-01T03:45:30;25.70;;;12.43;;
2001;SDS011;1003;48.002;7.788;2023-03-01T03:47:58;25.83;;;11.50;;
2001;SDS011;1003;48.002;7.788;2023-03-01T03:50:26;26.97;;;11.90;;
2001;SDS011;1003;48.002;7.788;2023-03-01T03:52:53;27.83;;;12.17;;
2001;SDS011;1003;48.002;7.788;2023-03-01T03:55:20;27.87;;;12.17;;
2001;SDS011;1003;48.002;7.788;2023-03-01T03:57:48;29.57;;;13.17;;
2001;SDS011;1003;48.002;7.788;2023-03-01T04:00:17;23.47;;;12.23;;
2001;SDS011;1003;48.002;7.788;2023-03-01T04:02:47;26.87;;;12.40;;
2001;SDS011;1003;48.002;7.788;2023-03-01T04:05:16;27.77;;;12.60;;
2001;SDS011;1003;48.002;7.788;2023-03-01T04:07:45;27.20;;;12.73;;
2001;SDS011;1003;48.002;7.788;2023-03-01T04:10:13;24.23;;;11.87;;
2001;SDS011;1003;48.002;7.788;2023-03-01T04:12:43;24.07;;;12.20;;
2001;SDS011;1003;48.002;7.788;2023-03-01T04:15:11;24.13;;;11.90;;
2001;SDS011;1003;48.002;7.788;2023-03-01T04:17:41;26.07;;;12.17;;
2001;SDS011;1003;48.002;7.788;2023-03-01T04:20:12;28.43;;;12.97;;
2001;SDS011;1003;48.002;7.788;2023-03-01T04:22:49;24.60;;;11.80;;
2001;SDS011;1003;48.002;7.788;2023-03-01T04:25:18;27.30;;;12.20;;
2001;SDS011;1003;48.002;7.788;2023-03-01T04:27:45;28.07;;;13.20;;
2001;SDS011;1003;48.002;7.788;2023-03-01T04:30:12;25.63;;;12.17;;
2001;SDS011;1003;48.002;7.788;2023-03-01T04:32:39;24.47;;;11.63;;
2001;SDS011;1003;48.002;7.788;2023-03-01T04:35:07;23.50;;;11.40;;
2001;SDS011;1003;48.002;7.788;2023-03-01T04:37:36;25.00;;;11.83;;
2001;SDS011;1003;48.002;7.788;2023-03-01T04:40:03;27.63;;;12.27;;
2001;SDS011;1003;48.002;7.788;2023-03-01T04:42:40;26.27;;;12.17;;
2001;SDS011;1003;48.002;7.788;2023-03-01T04:45:08;28.07;;;12.30;;
2001;SDS011;1003;48.002;7.788;2023-03-01T04:47:38;25.37;;;12.30;;
2001;SDS011;1003;48.002;7.788;2023-03-01T04:50:07;26.30;;;11.80;;
2001;SDS011;1003;48.002;7.788;2023-03-01T04:52:36;27.10;;;13.37;;
2001;SDS011;1003;48.002;7.788;2023-03-01T04:55:04;25.33;;;12.27;;
2001;SDS011;1003;48.002;7.788;2023-03-01T04:57:32;24.53;;;12.63;;
2001;SDS011;1003;48.002;7.788;2023-03-01T05:00:00;27.13;;;11.77;;
2001;SDS011;1003;48.002;7.788;2023-03-01T05:02:44;23.90;;;11.13;;
2001;SDS011;1003;48.002;7.788;2023-03-01T05:05:18;26.17;;;11.23;;
2001;SDS011;1003;48.002;7.788;2023-03-01T05:07:51;23.10;;;11.93;;
2001;SDS011;1003;48.002;7.788;2023-03-01T05:10:21;23.13;;;11.43;;
2001;SDS011;1003;48.002;7.788;2023-03-01T05:12:49;28.20;;;12.90;;
2001;SDS011;1003;48.002;7.788;2023-03-01T05:15:17;22.03;;;11.00;;
2001;SDS011;1003;48.002;7.788;2023-03-01T05:17:46;23.17;;;11.63;;
2001;SDS011;1003;48.002;7.788;2023-03-01T05:20:14;23.33;;;11.67;;
2001;SDS011;1003;48.002;7.788;2023-03-01T05:22:41;23.87;;;11.23;;
2001;SDS011;1003;48.002;7.788;2023-03-01T05:25:10;22.80;;;11.43;;
2001;SDS011;1003;48.002;7.788;2023-03-01T05:27:38;22.10;;;10.97;;
2001;SDS011;1003;48.002;7.788;2023-03-01T05:30:06;25.60;;;11.50;;
2001;SDS011;1003;48.002;7.788;2023-03-01T05:32:42;21.30;;;11.17;;
2001;SDS011;1003;48.002;7.788;2023-03-01T05:35:12;24.20;;;11.77;;
2001;SDS011;1003;48.002;7.788;2023-03-01T05:37:42;27.07;;;12.17;;
2001;SDS011;1003;48.002;7.788;2023-03-01T05:40:13;23.00;;;11.43;;
2001;SDS011;1003;48.002;7.788;2023-03-01T05:42:44;23.27;;;11.30;;
2001;SDS011;1003;48.002;7.788;2023-03-01T05:45:12;22.50;;;11.40;;
2001;SDS011;1003;48.002;7.788;2023-03-01T05:47:43;20.90;;;10.70;;
2001;SDS011;1003;48.002;7.788;2023-03-01T05:50:15;23.03;;;11.03;;
2001;SDS011;1003;48.002;7.788;2023-03-01T05:52:45;19.60;;;10.63;;
2001;SDS011;1003;48.002;7.788;2023-03-01T05:55:15;22.20;;;11.33;;
2001;SDS011;1003;48.002;7.788;2023-03-01T05:57:43;23.47;;;11.17;;
2001;SDS011;1003;48.002;7.788;2023-03-01T06:00:11;20.83;;;10.50;;
2001;SDS011;1003;48.002;7.788;2023-03-01T06:02:41;22.63;;;11.57;;
2001;SDS011;1003;48.002;7.788;2023-03-01T06:05:09;22.47;;;11.47;;
2001;SDS011;1003;48.002;7.788;2023-03-01T06:07:38;22.80;;;11.30;;
2001;SDS011;1003;48.002;7.788;2023-03-01T06:10:07;22.80;;;11.07;;
2001;SDS011;1003;48.002;7.788;2023-03-01T06:12:38;22.10;;;11.87;;
2001;SDS011;1003;48.002;7.788;2023-03-01T06:15:08;22.70;;;11.23;;
2001;SDS011;1003;48.002;7.788;2023-03-01T06:17:37;20.83;;;11.60;;
2001;SDS011;1003;48.002;7.788;2023-03-01T06:20:08;21.27;;;10.50;;
2001;SDS011;1003;48.002;7.788;2023-03-01T06:22:38;22.17;;;11.00;;
2001;SDS011;1003;48.002;7.788;2023-03-01T06:25:05;21.23;;;10.83;;
2001;SDS011;1003;48.002;7.788;2023-03-01T06:27:34;24.80;;;12.27;;
2001;SDS011;1003;48.002;7.788;2023-03-01T06:30:03;39.87;;;18.50;;
2001;SDS011;1003;48.002;7.788;2023-03-01T06:32:34;36.73;;;17.53;;
2001;SDS011;1003;48.002;7.788;2023-03-01T06:35:01;28.43;;;14.13;;
2001;SDS011;1003;48.002;7.788;2023-03-01T06:37:29;22.83;;;11.77;;
2001;SDS011;1003;48.002;7.788;2023-03-01T06:39:56;20.87;;;11.17;;
2001;SDS011;1003;48.002;7.788;2023-03-01T06:42:23;21.63;;;10.70;;
2001;SDS011;1003;48.002;7.788;2023-03-01T06:44:50;25.23;;;12.97;;
2001;SDS011;1003;48.002;7.788;2023-03-01T06:47:18;23.30;;;11.83;;
2001;SDS011;1003;48.002;7.788;2023-03-01T06:49:45;23.00;;;11.40;;
2001;SDS011;1003;48.002;7.788;2023-03-01T06:52:12;24.10;;;11.70;;
2001;SDS011;1003;48.002;7.788;2023-03-01T06:54:39;21.93;;;11.53;;
2001;SDS011;1003;48.002;7.788;2023-03-01T06:57:06;19.73;;;10.57;;
2001;SDS011;1003;48.002;7.788;2023-03-01T06:59:33;22.80;;;11.43;;
2001;SDS011;1003;48.002;7.788;2023-03-01T07:02:00;21.53;;;10.97;;
2001;SDS011;1003;48.002;7.788;2023-03-01T07:04:29;23.10;;;11.90;;
2001;SDS011;1003;48.002;7.788;2023-03-01T07:06:56;22.37;;;10.77;;
2001;SDS011;1003;48.002;7.788;2023-03-01T07:09:23;23.13;;;12.03;;
2001;SDS011;1003;48.002;7.788;2023-03-01T07:11:50;21.60;;;11.23;;
2001;SDS011;1003;48.002;7.788;2023-03-01T07:14:17;19.60;;;10.57;;
2001;SDS011;1003;48.002;7.788;2023-03-01T07:16:45;22.13;;;11.13;;
2001;SDS011;1003;48.002;7.788;2023-03-01T07:19:12;19.40;;;10.43;;
2001;SDS011;1003;48.002;7.788;2023-03-01T07:21:40;22.67;;;11.10;;
2001;SDS011;1003;48.002;7.788;2023-03-01T07:24:08;19.93;;;10.47;;
2001;SDS011;1003;48.002;7.788;2023-03-01T07:26:36;21.87;;;11.10;;
2001;SDS011;1003;48.002;7.788;2023-03-01T07:29:04;23.67;;;11.77;;
2001;SDS011;1003;48.002;7.788;2023-03-01T07:31:33;22.10;;;11.30;;
2001;SDS011;1003;48.002;7.788;2023-03-01T07:34:01;24.77;;;12.73;;
2001;SDS011;1003;48.002;7.788;2023-03-01T07:36:29;22.63;;;11.57;;
2001;SDS011;1003;48.002;7.788;2023-03-01T07:38:57;22.10;;;11.47;;
2001;SDS011;1003;48.002;7.788;2023-03-01T07:41:27;22.17;;;12.03;;
2001;SDS011;1003;48.002;7.788;2023-03-01T07:43:54;18.73;;;10.70;;
2001;SDS011;1003;48.002;7.788;2023-03-01T07:46:21;23.40;;;11.80;;
2001;SDS011;1003;48.002;7.788;2023-03-01T07:48:48;23.83;;;11.27;;
2001;SDS011;1003;48.002;7.788;2023-03-01T07:51:15;23.50;;;11.73;;
2001;SDS011;1003;48.002;7.788;2023-03-01T07:53:45;20.27;;;10.73;;
2001;SDS011;1003;48.002;7.788;2023-03-01T07:56:14;24.43;;;11.57;;
2001;SDS011;1003;48.002;7.788;2023-03-01T07:58:43;20.67;;;11.10;;
2001;SDS011;1003;48.002;7.788;2023-03-01T08:01:12;23.67;;;11.30;;
2001;SDS011;1003;48.002;7.788;2023-03-01T08:03:42;24.27;;;11.83;;
2001;SDS011;1003;48.002;7.788;2023-03-01T08:06:11;23.57;;;11.93;;
2001;SDS011;1003;48.002;7.788;2023-03-01T08:08:41;21.07;;;11.03;;
2001;SDS011;1003;48.002;7.788;2023-03-01T08:11:10;22.50;;;11.10;;
2001;SDS011;1003;48.002;7.788;2023-03-01T08:13:40;21.23;;;11.20;;
2001;SDS011;1003;48.002;7.788;2023-03-01T08:16:09;21.10;;;11.97;;
2001;SDS011;1003;48.002;7.788;2023-03-01T08:18:39;22.50;;;11.53;;
2001;SDS011;1003;48.002;7.788;2023-03-01T08:21:08;21.60;;;10.70;;
2001;SDS011;1003;48.002;7.788;2023-03-01T08:23:38;22.63;;;11.93;;
2001;SDS011;1003;48.002;7.788;2023-03-01T08:26:07;26.93;;;13.37;;
2001;SDS011;1003;48.002;7.788;2023-03-01T08:28:37;20.60;;;10.90;;
2001;SDS011;1003;48.002;7.788;2023-03-01T08:31:14;22.10;;;11.30;;
2001;SDS011;1003;48.002;7.788;2023-03-01T08:33:44;20.73;;;11.00;;
2001;SDS011;1003;48.002;7.788;2023-03-01T08:36:15;23.70;;;12.03;;
2001;SDS011;1003;48.002;7.788;2023-03-01T08:38:43;20.80;;;11.40;;
2001;SDS011;1003;48.002;7.788;2023-03-01T08:41:10;25.37;;;12.50;;
2001;SDS011;1003;48.002;7.788;2023-03-01T08:43:38;21.17;;;10.77;;
2001;SDS011;1003;48.002;7.788;2023-03-01T08:46:05;22.97;;;11.03;;
2001;SDS011;1003;48.002;7.788;2023-03-01T08:48:34;22.53;;;11.67;;
2001;SDS011;1003;48.002;7.788;2023-03-01T08:51:06;22.47;;;10.77;;
2001;SDS011;1003;48.002;7.788;2023-03-01T08:53:34;20.03;;;10.60;;
2001;SDS011;1003;48.002;7.788;2023-03-01T08:56:02;25.00;;;11.70;;
2001;SDS011;1003;48.002;7.788;2023-03-01T08:58:30;21.57;;;11.50;;
2001;SDS011;1003;48.002;7.788;2023-03-01T09:00:57;21.10;;;11.30;;
2001;SDS011;1003;48.002;7.788;2023-03-01T09:03:24;21.53;;;12.30;;
2001;SDS011;1003;48.002;7.788;2023-03-01T09:05:53;20.47;;;11.87;;
2001;SDS011;1003;48.002;7.788;2023-03-01T09:08:27;21.23;;;11.40;;
2001;SDS011;1003;48.002;7.788;2023-03-01T09:10:54;22.27;;;11.73;;
2001;SDS011;1003;48.002;7.788;2023-03-01T09:13:21;22.90;;;11.43;;
2001;SDS011;1003;48.002;7.788;2023-03-01T09:15:49;21.70;;;11.30;;
2001;SDS011;1003;48.002;7.788;2023-03-01T09:18:17;23.47;;;11.97;;
2001;SDS011;1003;48.002;7.788;2023-03-01T09:20:44;21.77;;;12.07;;
2001;SDS011;1003;48.002;7.788;2023-03-01T09:23:13;22.37;;;11.67;;
2001;SDS011;1003;48.002;7.788;2023-03-01T09:25:40;21.63;;;10.90;;
2001;SDS011;1003;48.002;7.788;2023-03-01T09:28:07;19.63;;;11.23;;
2001;SDS011;1003;48.002;7.788;2023-03-01T09:30:35;22.20;;;11.63;;
2001;SDS011;1003;48.002;7.788;2023-03-01T09:33:02;21.30;;;11.00;;
2001;SDS011;1003;48.002;7.788;2023-03-01T09:35:30;21.23;;;11.27;;
2001;SDS011;1003;48.002;7.788;2023-03-01T09:37:57;20.60;;;11.13;;
2001;SDS011;1003;48.002;7.788;2023-03-01T09:40:25;19.67;;;11.37;;
2001;SDS011;1003;48.002;7.788;2023-03-01T09:42:57;19.93;;;10.93;;
2001;SDS011;1003;48.002;7.788;2023-03-01T09:45:40;22.97;;;11.40;;
2001;SDS011;1003;48.002;7.788;2023-03-01T09:48:13;22.20;;;11.63;;
2001;SDS011;1003;48.002;7.788;2023-03-01T09:50:47;20.87;;;11.20;;
2001;SDS011;1003;48.002;7.788;2023-03-01T09:53:15;22.30;;;11.63;;
2001;SDS011;1003;48.002;7.788;2023-03-01T09:55:48;19.13;;;10.70;;
2001;SDS011;1003;48.002;7.788;2023-03-01T10:01:23;22.10;;;11.73;;
2001;SDS011;1003;48.002;7.788;2023-03-01T10:04:03;20.07;;;11.50;;
2001;SDS011;1003;48.002;7.788;2023-03-01T10:06:51;19.97;;;11.33;;
2001;SDS011;1003;48.002;7.788;2023-03-01T10:09:32;22.73;;;12.03;;
2001;SDS011;1003;48.002;7.788;2023-03-01T10:12:04;21.53;;;11.47;;
2001;SDS011;1003;48.002;7.788;2023-03-01T10:14:39;20.37;;;10.97;;
2001;SDS011;1003;48.002;7.788;2023-03-01T10:17:17;20.07;;;10.90;;
2001;SDS011;1003;48.002;7.788;2023-03-01T10:19:56;23.37;;;11.80;;
2001;SDS011;1003;48.002;7.788;2023-03-01T10:22:41;20.67;;;11.47;;
2001;SDS011;1003;48.002;7.788;2023-03-01T10:25:12;21.37;;;11.80;;
2001;SDS011;1003;48.002;7.788;2023-03-01T10:27:44;18.83;;;10.90;;
2001;SDS011;1003;48.002;7.788;2023-03-01T10:30:19;22.57;;;11.37;;
2001;SDS011;1003;48.002;7.788;2023-03-01T10:32:55;21.27;;;11.60;;
2001;SDS011;1003;48.002;7.788;2023-03-01T10:35:25;19.43;;;11.23;;
2001;SDS011;1003;48.002;7.788;2023-03-01T10:37:58;19.70;;;11.60;;
2001;SDS011;1003;48.002;7.788;2023-03-01T10:40:31;22.03;;;12.40;;
2001;SDS011;1003;48.002;7.788;2023-03-01T10:43:02;21.83;;;12.50;;
2001;SDS011;1003;48.002;7.788;2023-03-01T10:45:33;23.73;;;12.43;;
2001;SDS011;1003;48.002;7.788;2023-03-01T10:48:03;22.67;;;12.33;;
2001;SDS011;1003;48.002;7.788;2023-03-01T10:50:38;22.03;;;12.00;;
2001;SDS011;1003;48.002;7.788;2023-03-01T10:53:10;23.50;;;12.17;;
2001;SDS011;1003;48.002;7.788;2023-03-01T10:55:57;21.10;;;11.70;;
2001;SDS011;1003;48.002;7.788;2023-03-01T10:58:29;23.27;;;13.00;;
2001;SDS011;1003;48.002;7.788;2023-03-01T11:00:58;27.73;;;12.63;;
2001;SDS011;1003;48.002;7.788;2023-03-01T11:03:28;23.03;;;12.53;;
2001;SDS011;1003;48.002;7.788;2023-03-01T11:05:58;23.57;;;12.67;;
2001;SDS011;1003;48.002;7.788;2023-03-01T11:08:30;25.73;;;13.13;;
2001;SDS011;1003;48.002;7.788;2023-03-01T11:11:14;23.00;;;11.90;;
2001;SDS011;1003;48.002;7.788;2023-03-01T11:13:55;24.77;;;12.53;;
2001;SDS011;1003;48.002;7.788;2023-03-01T11:16:29;25.13;;;12.77;;
2001;SDS011;1003;48.002;7.788;2023-03-01T11:19:16;23.50;;;12.37;;
2001;SDS011;1003;48.002;7.788;2023-03-01T11:21:52;23.57;;;11.53;;
2001;SDS011;1003;48.002;7.788;2023-03-01T11:24:34;23.27;;;12.07;;
2001;SDS011;1003;48.002;7.788;2023-03-01T11:27:13;24.43;;;13.03;;
2001;SDS011;1003;48.002;7.788;2023-03-01T11:29:50;21.40;;;11.70;;
2001;SDS011;1003;48.002;7.788;2023-03-01T11:32:26;26.37;;;12.17;;
2001;SDS011;1003;48.002;7.788;2023-03-01T11:35:03;19.23;;;11.30;;
2001;SDS011;1003;48.002;7.788;2023-03-01T11:37:41;21.30;;;12.13;;
2001;SDS011;1003;48.002;7.788;2023-03-01T11:40:26;21.60;;;11.43;;
2001;SDS011;1003;48.002;7.788;2023-03-01T11:43:01;23.33;;;12.73;;
2001;SDS011;1003;48.002;7.788;2023-03-01T11:45:43;24.20;;;12.17;;
2001;SDS011;1003;48.002;7.788;2023-03-01T11:48:27;18.63;;;10.67;;
2001;SDS011;1003;48.002;7.788;2023-03-01T11:51:13;20.70;;;11.50;;
2001;SDS011;1003;48.002;7.788;2023-03-01T11:53:54;24.03;;;12.53;;
2001;SDS011;1003;48.002;7.788;2023-03-01T11:56:34;25.03;;;12.17;;
2001;SDS011;1003;48.002;7.788;2023-03-01T12:05:28;19.43;;;10.20;;
2001;SDS011;1003;48.002;7.788;2023-03-01T12:08:39;20.30;;;10.30;;
2001;SDS011;1003;48.002;7.788;2023-03-01T12:11:20;19.13;;;11.20;;
2001;SDS011;1003;48.002;7.788;2023-03-01T12:14:15;19.30;;;10.57;;
2001;SDS011;1003;48.002;7.788;2023-03-01T12:17:06;21.20;;;11.00;;
2001;SDS011;1003;48.002;7.788;2023-03-01T12:20:10;20.37;;;10.87;;
2001;SDS011;1003;48.002;7.788;2023-03-01T12:22:59;20.63;;;11.27;;
2001;SDS011;1003;48.002;7.788;2023-03-01T12:26:02;24.00;;;11.30;;
2001;SDS011;1003;48.002;7.788;2023-03-01T12:28:49;18.60;;;11.37;;
2001;SDS011;1003;48.002;7.788;2023-03-01T12:31:43;19.40;;;10.97;;
2001;SDS011;1003;48.002;7.788;2023-03-01T12:34:47;17.83;;;9.83;;
2001;SDS011;1003;48.002;7.788;2023-03-01T12:37:49;18.60;;;10.80;;
2001;SDS011;1003;48.002;7.788;2023-03-01T12:40:43;15.23;;;8.83;;
2001;SDS011;1003;48.002;7.788;2023-03-01T12:43:36;18.03;;;10.47;;
2001;SDS011;1003;48.002;7.788;2023-03-01T12:46:24;18.33;;;10.10;;
2001;SDS011;1003;48.002;7.788;2023-03-01T12:49:08;18.03;;;10.83;;
2001;SDS011;1003;48.002;7.788;2023-03-01T12:51:42;19.07;;;10.57;;
2001;SDS011;1003;48.002;7.788;2023-03-01T12:54:22;17.20;;;10.17;;
2001;SDS011;1003;48.002;7.788;2023-03-01T12:56:56;18.80;;;10.47;;
2001;SDS011;1003;48.002;7.788;2023-03-01T12:59:36;17.23;;;9.53;;
2001;SDS011;1003;48.002;7.788;2023-03-01T13:02:15;18.37;;;10.00;;
2001;SDS011;1003;48.002;7.788;2023-03-01T13:04:53;16.87;;;9.07;;
2001;SDS011;1003;48.002;7.788;2023-03-01T13:07:43;17.53;;;10.30;;
2001;SDS011;1003;48.002;7.788;2023-03-01T13:10:24;15.40;;;9.03;;
2001;SDS011;1003;48.002;7.788;2023-03-01T13:13:08;16.50;;;9.53;;
2001;SDS011;1003;48.002;7.788;2023-03-01T13:15:44;15.50;;;8.97;;
2001;SDS011;1003;48.002;7.788;2023-03-01T13:18:31;17.20;;;9.93;;
2001;SDS011;1003;48.002;7.788;2023-03-01T13:21:00;17.93;;;10.27;;
2001;SDS011;1003;48.002;7.788;2023-03-01T13:23:31;16.07;;;9.20;;
2001;SDS011;1003;48.002;7.788;2023-03-01T13:26:05;17.63;;;9.60;;
2001;SDS011;1003;48.002;7.788;2023-03-01T13:28:41;19.20;;;10.90;;
2001;SDS011;1003;48.002;7.788;2023-03-01T13:34:47;18.30;;;10.30;;
2001;SDS011;1003;48.002;7.788;2023-03-01T13:37:18;19.23;;;10.97;;
2001;SDS011;1003;48.002;7.788;2023-03-01T13:43:29;15.90;;;9.23;;
2001;SDS011;1003;48.002;7.788;2023-03-01T13:45:59;17.80;;;9.57;;
2001;SDS011;1003;48.002;7.788;2023-03-01T13:48:29;19.30;;;10.63;;
2001;SDS011;1003;48.002;7.788;2023-03-01T13:50:59;17.80;;;9.73;;
2001;SDS011;1003;48.002;7.788;2023-03-01T13:53:31;14.73;;;8.90;;
2001;SDS011;1003;48.002;7.788;2023-03-01T13:56:03;16.57;;;9.07;;
2001;SDS011;1003;48.002;7.788;2023-03-01T13:58:46;17.53;;;10.53;;
2001;SDS011;1003;48.002;7.788;2023-03-01T14:01:20;16.43;;;9.43;;
2001;SDS011;1003;48.002;7.788;2023-03-01T14:03:51;16.73;;;9.73;;
2001;SDS011;1003;48.002;7.788;2023-03-01T14:06:20;15.30;;;8.97;;
2001;SDS011;1003;48.002;7.788;2023-03-01T14:08:51;16.63;;;9.40;;
2001;SDS011;1003;48.002;7.788;2023-03-01T14:11:47;15.57;;;9.03;;
2001;SDS011;1003;48.002;7.788;2023-03-01T14:14:46;17.40;;;9.83;;
2001;SDS011;1003;48.002;7.788;2023-03-01T14:17:31;14.77;;;8.97;;
2001;SDS011;1003;48.002;7.788;2023-03-01T14:20:14;20.00;;;12.00;;
2001;SDS011;1003;48.002;7.788;2023-03-01T14:22:46;18.20;;;10.17;;
2001;SDS011;1003;48.002;7.788;2023-03-01T14:25:18;16.83;;;8.73;;
2001;SDS011;1003;48.002;7.788;2023-03-01T14:28:00;17.03;;;9.60;;
2001;SDS011;1003;48.002;7.788;2023-03-01T14:30:41;16.33;;;9.80;;
2001;SDS011;1003;48.002;7.788;2023-03-01T14:33:20;16.10;;;8.77;;
2001;SDS011;1003;48.002;7.788;2023-03-01T14:35:54;21.73;;;12.10;;
2001;SDS011;1003;48.002;7.788;2023-03-01T14:38:28;22.87;;;12.23;;
2001;SDS011;1003;48.002;7.788;2023-03-01T14:41:00;22.13;;;12.63;;
2001;SDS011;1003;48.002;7.788;2023-03-01T14:43:32;23.60;;;13.47;;
2001;SDS011;1003;48.002;7.788;2023-03-01T14:46:01;24.93;;;13.37;;
2001;SDS011;1003;48.002;7.788;2023-03-01T14:48:28;24.13;;;13.23;;
2001;SDS011;1003;48.002;7.788;2023-03-01T14:50:58;22.77;;;13.50;;
2001;SDS011;1003;48.002;7.788;2023-03-01T14:53:26;23.33;;;13.33;;
2001;SDS011;1003;48.002;7.788;2023-03-01T14:55:56;24.50;;;13.97;;
2001;SDS011;1003;48.002;7.788;2023-03-01T14:58:28;26.33;;;13.90;;
2001;SDS011;1003;48.002;7.788;2023-03-01T15:00:59;26.77;;;13.63;;
2001;SDS011;1003;48.002;7.788;2023-03-01T15:03:31;26.77;;;14.30;;
2001;SDS011;1003;48.002;7.788;2023-03-01T15:06:02;25.20;;;13.57;;
2001;SDS011;1003;48.002;7.788;2023-03-01T15:08:32;23.43;;;13.10;;
2001;SDS011;1003;48.002;7.788;2023-03-01T15:11:01;25.53;;;13.30;;
2001;SDS011;1003;48.002;7.788;2023-03-01T15:13:32;26.20;;;13.07;;
2001;SDS011;1003;48.002;7.788;2023-03-01T15:16:04;23.63;;;13.10;;
2001;SDS011;1003;48.002;7.788;2023-03-01T15:18:35;26.43;;;14.17;;
2001;SDS011;1003;48.002;7.788;2023-03-01T15:21:08;24.87;;;13.13;;
2001;SDS011;1003;48.002;7.788;2023-03-01T15:23:47;24.10;;;13.10;;
2001;SDS011;1003;48.002;7.788;2023-03-01T15:26:27;26.20;;;13.67;;
2001;SDS011;1003;48.002;7.788;2023-03-01T15:28:57;23.67;;;13.27;;
2001;SDS011;1003;48.002;7.788;2023-03-01T15:31:28;26.30;;;13.83;;
2001;SDS011;1003;48.002;7.788;2023-03-01T15:34:10;25.77;;;14.10;;
2001;SDS011;1003;48.002;7.788;2023-03-01T15:36:49;24.27;;;12.67;;
2001;SDS011;1003;48.002;7.788;2023-03-01T15:42:03;29.77;;;14.03;;